createdAt,value
2023-02-11T00:01:25.120Z,58.57
2023-02-11T00:03:53.452Z,56.50
2023-02-11T00:06:21.076Z,51.80
2023-02-11T00:08:48.713Z,52.57
2023-02-11T00:11:18.049Z,53.80
2023-02-11T00:13:48.159Z,56.97
2023-02-11T00:16:17.830Z,54.53
2023-02-11T00:18:45.690Z,57.37
2023-02-11T00:21:15.785Z,61.87
2023-02-11T00:23:43.567Z,57.63
2023-02-11T00:26:15.019Z,65.27
2023-02-11T00:28:43.981Z,63.17
2023-02-11T00:31:13.875Z,63.77
2023-02-11T00:33:41.820Z,62.13
2023-02-11T00:36:12.862Z,65.40
2023-02-11T00:38:40.652Z,64.13
2023-02-11T00:41:08.349Z,70.97
2023-02-11T00:43:36.433Z,61.70
2023-02-11T00:46:04.450Z,65.37
2023-02-11T00:48:33.793Z,65.50
2023-02-11T00:51:01.774Z,71.70
2023-02-11T00:53:29.463Z,70.57
2023-02-11T00:55:57.148Z,76.97
2023-02-11T00:58:26.661Z,73.30
2023-02-11T01:00:56.073Z,80.27
2023-02-11T01:03:25.503Z,73.77
2023-02-11T01:05:54.595Z,65.77
2023-02-11T01:08:22.553Z,76.67
2023-02-11T01:10:55.879Z,76.40
2023-02-11T01:13:24.332Z,72.47
2023-02-11T01:15:52.496Z,76.60
2023-02-11T01:18:20.572Z,84.20
2023-02-11T01:20:50.358Z,72.93
2023-02-11T01:23:19.506Z,81.60
2023-02-11T01:25:48.303Z,74.10
2023-02-11T01:28:18.251Z,78.80
2023-02-11T01:30:46.082Z,87.13
2023-02-11T01:33:13.855Z,80.47
2023-02-11T01:35:42.556Z,76.67
2023-02-11T01:38:16.529Z,81.13
2023-02-11T01:40:49.942Z,79.83
2023-02-11T01:43:17.651Z,76.13
2023-02-11T01:45:59.366Z,76.00
2023-02-11T01:48:32.058Z,76.27
2023-02-11T01:51:05.093Z,84.53
2023-02-11T01:53:52.455Z,81.10
2023-02-11T01:56:39.426Z,80.87
2023-02-11T01:59:12.587Z,83.30
2023-02-11T02:01:46.903Z,91.47
2023-02-11T02:04:19.829Z,88.70
2023-02-11T02:06:51.547Z,85.77
2023-02-11T02:09:23.549Z,86.60
2023-02-11T02:11:52.999Z,79.60
2023-02-11T02:14:21.401Z,96.03
2023-02-11T02:16:49.199Z,85.47
2023-02-11T02:19:49.813Z,85.40
2023-02-11T02:22:38.195Z,83.70
2023-02-11T02:25:29.348Z,84.10
2023-02-11T02:28:13.899Z,80.80
2023-02-11T02:31:04.223Z,83.67
2023-02-11T02:33:43.205Z,88.17
2023-02-11T02:36:18.602Z,81.07
2023-02-11T02:38:52.167Z,88.53
2023-02-11T02:41:22.307Z,91.23
2023-02-11T02:43:51.994Z,92.17
2023-02-11T02:46:22.493Z,87.47
2023-02-11T02:48:53.464Z,90.50
2023-02-11T02:51:56.368Z,94.97
2023-02-11T02:54:54.690Z,78.53
2023-02-11T02:57:31.749Z,78.73
2023-02-11T03:00:13.197Z,78.93
2023-02-11T03:02:49.883Z,85.60
2023-02-11T03:05:24.412Z,87.13
2023-02-11T03:07:59.625Z,87.17
2023-02-11T03:10:31.321Z,82.10
2023-02-11T03:12:59.671Z,87.73
2023-02-11T03:15:32.615Z,95.00
2023-02-11T03:18:02.877Z,84.97
2023-02-11T03:20:37.419Z,81.03
2023-02-11T03:23:12.532Z,80.93
2023-02-11T03:25:46.654Z,80.63
2023-02-11T03:28:19.021Z,80.60
2023-02-11T03:30:54.540Z,76.43
2023-02-11T03:33:28.373Z,83.00
2023-02-11T03:36:01.553Z,71.33
2023-02-11T03:38:34.029Z,90.13
2023-02-11T03:41:05.781Z,83.37
2023-02-11T03:43:37.216Z,87.33
2023-02-11T03:46:06.042Z,82.87
2023-02-11T03:48:38.541Z,82.23
2023-02-11T03:51:10.437Z,85.77
2023-02-11T03:53:42.251Z,87.83
2023-02-11T03:56:14.147Z,83.83
2023-02-11T03:58:41.841Z,81.13
2023-02-11T04:01:09.926Z,81.67
2023-02-11T04:03:37.625Z,85.93
2023-02-11T04:06:07.354Z,90.53
2023-02-11T04:08:35.108Z,94.60
2023-02-11T04:11:02.796Z,86.10
2023-02-11T04:13:30.577Z,87.57
2023-02-11T04:15:58.275Z,80.43
2023-02-11T04:18:25.907Z,95.17
2023-02-11T04:20:53.526Z,90.57
2023-02-11T04:23:22.560Z,87.37
2023-02-11T04:25:51.219Z,85.93
2023-02-11T04:28:19.141Z,91.93
2023-02-11T04:30:47.294Z,82.27
2023-02-11T04:33:14.885Z,83.83
2023-02-11T04:35:42.588Z,84.83
2023-02-11T04:38:10.277Z,88.30
2023-02-11T04:40:39.393Z,84.23
2023-02-11T04:43:07.317Z,88.03
2023-02-11T04:45:35.091Z,75.80
2023-02-11T04:48:03.058Z,75.47
2023-02-11T04:50:31.310Z,85.37
2023-02-11T04:52:59.146Z,83.50
2023-02-11T04:55:27.000Z,75.33
2023-02-11T04:57:56.254Z,73.17
2023-02-11T05:00:23.965Z,70.77
2023-02-11T05:02:52.012Z,75.20
2023-02-11T05:05:19.863Z,77.07
2023-02-11T05:07:48.286Z,74.90
2023-02-11T05:10:16.233Z,67.37
2023-02-11T05:12:43.841Z,64.43
2023-02-11T05:15:12.869Z,69.67
2023-02-11T05:17:41.043Z,62.03
2023-02-11T05:20:09.818Z,60.73
2023-02-11T05:22:37.506Z,64.83
2023-02-11T05:25:05.618Z,65.80
2023-02-11T05:27:33.318Z,62.93
2023-02-11T05:30:00.996Z,60.27
2023-02-11T05:32:30.017Z,59.17
2023-02-11T05:34:57.650Z,65.87
2023-02-11T05:37:25.397Z,60.93
2023-02-11T05:39:53.177Z,61.63
2023-02-11T05:42:20.817Z,70.53
2023-02-11T05:44:50.529Z,61.13
2023-02-11T05:47:18.402Z,66.43
2023-02-11T05:49:47.417Z,69.27
2023-02-11T05:52:15.062Z,67.13
2023-02-11T05:54:43.238Z,63.10
2023-02-11T05:57:10.952Z,62.13
2023-02-11T05:59:38.772Z,73.33
2023-02-11T06:02:07.904Z,71.10
2023-02-11T06:04:35.762Z,62.57
2023-02-11T06:07:05.094Z,67.47
2023-02-11T06:09:32.816Z,64.33
2023-02-11T06:12:00.475Z,62.60
2023-02-11T06:14:28.278Z,70.70
2023-02-11T06:16:55.864Z,65.23
2023-02-11T06:19:23.517Z,76.17
2023-02-11T06:21:51.186Z,64.47
2023-02-11T06:24:38.503Z,68.63
2023-02-11T06:27:07.964Z,65.60
2023-02-11T06:29:35.819Z,69.87
2023-02-11T06:32:03.597Z,72.53
2023-02-11T06:34:31.506Z,70.10
2023-02-11T06:36:59.122Z,70.20
2023-02-11T06:39:28.210Z,66.83
2023-02-11T06:41:56.064Z,70.83
2023-02-11T06:44:23.774Z,71.50
2023-02-11T06:46:51.495Z,63.13
2023-02-11T06:49:19.146Z,68.03
2023-02-11T06:51:47.027Z,68.40
2023-02-11T06:54:14.792Z,62.77
2023-02-11T06:56:43.824Z,65.73
2023-02-11T06:59:15.945Z,62.53
2023-02-11T07:01:43.733Z,63.67
2023-02-11T07:04:11.684Z,59.50
2023-02-11T07:06:39.305Z,58.57
2023-02-11T07:09:07.000Z,61.40
2023-02-11T07:11:35.056Z,67.27
2023-02-11T07:14:06.758Z,60.13
2023-02-11T07:16:36.120Z,63.53
2023-02-11T07:19:03.928Z,63.40
2023-02-11T07:21:31.863Z,60.47
2023-02-11T07:23:59.614Z,68.60
2023-02-11T07:26:27.262Z,70.47
2023-02-11T07:28:55.164Z,60.53
2023-02-11T07:31:25.980Z,59.43
2023-02-11T07:33:54.615Z,65.77
2023-02-11T07:36:23.116Z,64.17
2023-02-11T07:38:50.985Z,71.70
2023-02-11T07:41:20.906Z,65.00
2023-02-11T07:43:48.744Z,65.47
2023-02-11T07:46:18.864Z,65.80
2023-02-11T07:48:48.366Z,64.27
2023-02-11T07:51:18.090Z,66.03
2023-02-11T07:53:46.750Z,65.03
2023-02-11T07:56:15.892Z,70.37
2023-02-11T07:58:43.771Z,69.30
2023-02-11T08:01:13.614Z,76.83
2023-02-11T08:03:42.657Z,72.53
2023-02-11T08:06:13.933Z,78.77
2023-02-11T08:08:42.171Z,74.73
2023-02-11T08:11:11.331Z,77.63
2023-02-11T08:13:39.513Z,77.87
2023-02-11T08:16:08.283Z,84.30
2023-02-11T08:18:36.750Z,84.57
2023-02-11T08:21:08.459Z,77.60
2023-02-11T08:23:39.210Z,91.23
2023-02-11T08:26:08.698Z,85.97
2023-02-11T08:28:37.359Z,88.67
2023-02-11T08:31:07.575Z,87.70
2023-02-11T08:33:35.630Z,96.53
2023-02-11T08:36:09.791Z,86.77
2023-02-11T08:38:39.053Z,95.93
2023-02-11T08:41:06.809Z,101.83
2023-02-11T08:43:34.461Z,111.17
2023-02-11T08:46:02.886Z,104.50
2023-02-11T08:48:31.392Z,98.17
2023-02-11T08:50:59.045Z,88.43
2023-02-11T08:53:26.768Z,98.07
2023-02-11T08:55:56.570Z,101.07
2023-02-11T08:58:24.255Z,103.73
2023-02-11T09:00:52.238Z,108.50
2023-02-11T09:03:20.098Z,108.87
2023-02-11T09:05:49.813Z,108.13
2023-02-11T09:08:18.065Z,112.60
2023-02-11T09:10:45.740Z,117.60
2023-02-11T09:13:14.795Z,121.10
2023-02-11T09:15:46.251Z,119.60
2023-02-11T09:18:13.872Z,124.80
2023-02-11T09:20:41.538Z,121.27
2023-02-11T09:23:09.440Z,123.67
2023-02-11T09:25:40.142Z,120.53
2023-02-11T09:28:08.076Z,117.33
2023-02-11T09:30:37.389Z,129.20
2023-02-11T09:33:05.565Z,136.97
2023-02-11T09:35:34.656Z,133.00
2023-02-11T09:38:02.307Z,132.80
2023-02-11T09:40:30.019Z,139.70
2023-02-11T09:43:08.801Z,127.57
2023-02-11T09:45:38.311Z,133.47
2023-02-11T09:48:13.625Z,132.10
2023-02-11T09:50:44.866Z,136.87
2023-02-11T09:53:18.807Z,133.63
2023-02-11T09:55:49.041Z,142.10
2023-02-11T09:58:21.439Z,143.73
2023-02-11T10:00:55.626Z,141.13
2023-02-11T10:03:48.136Z,144.23
2023-02-11T10:06:38.132Z,140.77
2023-02-11T10:09:20.704Z,149.83
2023-02-11T10:11:59.131Z,133.87
2023-02-11T10:14:47.166Z,144.23
2023-02-11T10:17:23.531Z,135.27
2023-02-11T10:20:04.086Z,143.47
2023-02-11T10:22:36.086Z,146.90
2023-02-11T10:25:18.069Z,158.63
2023-02-11T10:27:46.024Z,175.13
2023-02-11T10:30:23.197Z,180.17
2023-02-11T10:32:57.123Z,174.37
2023-02-11T10:35:27.216Z,193.63
2023-02-11T10:37:55.788Z,204.67
2023-02-11T10:40:25.686Z,196.70
2023-02-11T10:42:55.968Z,192.03
2023-02-11T10:45:29.080Z,205.30
2023-02-11T10:47:59.438Z,182.77
2023-02-11T10:50:28.982Z,192.60
2023-02-11T10:53:13.247Z,187.70
2023-02-11T10:55:51.342Z,185.60
2023-02-11T10:58:26.109Z,184.37
2023-02-11T11:00:56.423Z,184.03
2023-02-11T11:03:28.237Z,191.43
2023-02-11T11:05:58.822Z,179.33
2023-02-11T11:08:41.085Z,188.53
2023-02-11T11:11:11.298Z,183.90
2023-02-11T11:13:40.488Z,177.37
2023-02-11T11:16:24.609Z,186.17
2023-02-11T11:18:55.069Z,182.37
2023-02-11T11:21:25.075Z,186.43
2023-02-11T11:23:56.535Z,181.60
2023-02-11T11:26:26.223Z,199.17
2023-02-11T11:29:00.960Z,196.80
2023-02-11T11:31:33.506Z,193.17
2023-02-11T11:34:18.411Z,184.53
2023-02-11T11:36:46.424Z,191.93
2023-02-11T11:39:22.164Z,186.90
2023-02-11T11:41:56.185Z,185.23
2023-02-11T11:44:32.657Z,189.13
2023-02-11T11:47:21.079Z,198.90
2023-02-11T11:49:58.773Z,205.47
2023-02-11T11:52:36.712Z,182.13
2023-02-11T11:55:13.943Z,192.67
2023-02-11T11:57:42.158Z,184.27
2023-02-11T12:00:17.791Z,201.10
2023-02-11T12:03:21.135Z,209.00
2023-02-11T12:06:04.660Z,189.57
2023-02-11T12:08:45.190Z,186.33
2023-02-11T12:11:22.572Z,178.37
2023-02-11T12:14:05.890Z,188.53
2023-02-11T12:16:43.477Z,186.43
2023-02-11T12:19:39.713Z,181.63
2023-02-11T12:22:12.235Z,180.20
2023-02-11T12:25:01.116Z,176.00
2023-02-11T12:27:43.438Z,171.47
2023-02-11T12:30:22.591Z,183.70
2023-02-11T12:32:59.671Z,180.93
2023-02-11T12:35:33.108Z,178.80
2023-02-11T12:38:18.843Z,179.73
2023-02-11T12:40:50.989Z,174.20
2023-02-11T12:43:24.092Z,184.97
2023-02-11T12:46:34.869Z,175.20
2023-02-11T12:49:31.399Z,187.07
2023-02-11T12:52:26.211Z,175.63
2023-02-11T12:55:00.319Z,182.17
2023-02-11T12:57:32.015Z,193.80
2023-02-11T13:00:04.262Z,184.90
2023-02-11T13:02:42.258Z,206.27
2023-02-11T13:05:24.371Z,181.47
2023-02-11T13:07:57.893Z,190.50
2023-02-11T13:10:31.213Z,185.87
2023-02-11T13:13:19.373Z,182.17
2023-02-11T13:15:54.869Z,180.53
2023-02-11T13:18:38.056Z,194.77
2023-02-11T13:21:30.680Z,183.10
2023-02-11T13:24:09.158Z,185.30
2023-02-11T13:26:43.986Z,196.50
2023-02-11T13:29:22.894Z,182.80
2023-02-11T13:31:55.223Z,176.13
2023-02-11T13:34:27.745Z,189.67
2023-02-11T13:36:56.875Z,202.03
2023-02-11T13:39:24.750Z,198.40
2023-02-11T13:42:03.494Z,207.57
2023-02-11T13:44:35.130Z,196.63
2023-02-11T13:47:05.591Z,196.77
2023-02-11T13:49:37.489Z,199.37
2023-02-11T13:52:17.696Z,198.10
2023-02-11T13:54:49.946Z,204.10
2023-02-11T13:57:28.479Z,185.17
2023-02-11T13:59:57.363Z,197.50
2023-02-11T14:02:46.591Z,193.53
2023-02-11T14:05:40.989Z,202.97
2023-02-11T14:08:33.489Z,186.00
2023-02-11T14:11:02.620Z,203.17
2023-02-11T14:13:32.483Z,216.37
2023-02-11T14:16:11.049Z,232.27
2023-02-11T14:19:00.906Z,207.27
2023-02-11T14:21:36.343Z,208.67
2023-02-11T14:24:46.399Z,214.80
2023-02-11T14:27:21.559Z,206.23
2023-02-11T14:30:03.282Z,219.53
2023-02-11T14:32:40.869Z,232.00
2023-02-11T14:35:15.154Z,210.30
2023-02-11T14:37:53.645Z,208.73
2023-02-11T14:40:29.032Z,229.10
2023-02-11T14:42:59.245Z,231.30
2023-02-11T14:45:31.017Z,217.53
2023-02-11T14:48:04.348Z,208.07
2023-02-11T14:50:40.226Z,234.07
2023-02-11T14:53:13.442Z,234.47
2023-02-11T14:55:42.821Z,222.27
2023-02-11T14:58:16.285Z,228.10
2023-02-11T15:00:55.102Z,217.70
2023-02-11T15:03:27.977Z,210.20
2023-02-11T15:05:57.441Z,214.00
2023-02-11T15:08:25.195Z,218.07
2023-02-11T15:10:55.255Z,216.00
2023-02-11T15:13:27.124Z,217.33
2023-02-11T15:16:01.631Z,215.67
2023-02-11T15:18:35.208Z,213.50
2023-02-11T15:21:03.038Z,219.37
2023-02-11T15:23:32.184Z,216.23
2023-02-11T15:26:04.657Z,214.17
2023-02-11T15:28:35.525Z,205.13
2023-02-11T15:31:07.068Z,209.63
2023-02-11T15:33:34.763Z,215.20
2023-02-11T15:36:03.893Z,216.37
2023-02-11T15:38:32.092Z,217.20
2023-02-11T15:41:02.059Z,220.50
2023-02-11T15:43:43.155Z,227.30
2023-02-11T15:46:16.417Z,204.67
2023-02-11T15:48:47.044Z,232.17
2023-02-11T15:51:21.810Z,218.07
2023-02-11T15:53:53.027Z,218.07
2023-02-11T15:56:25.327Z,207.50
2023-02-11T15:58:55.493Z,221.07
2023-02-11T16:01:33.898Z,225.40
2023-02-11T16:04:03.539Z,202.77
2023-02-11T16:06:37.989Z,202.23
2023-02-11T16:09:22.864Z,205.97
2023-02-11T16:11:58.975Z,196.77
2023-02-11T16:14:31.701Z,203.53
2023-02-11T16:17:04.549Z,224.07
2023-02-11T16:19:34.347Z,207.60
2023-02-11T16:22:08.725Z,201.37
2023-02-11T16:24:38.758Z,203.07
2023-02-11T16:27:09.389Z,194.83
2023-02-11T16:29:38.149Z,206.30
2023-02-11T16:32:09.585Z,208.30
2023-02-11T16:34:38.170Z,201.17
2023-02-11T16:37:06.903Z,206.43
2023-02-11T16:39:34.929Z,204.43
2023-02-11T16:42:04.744Z,192.20
2023-02-11T16:44:34.564Z,196.80
2023-02-11T16:47:03.934Z,206.83
2023-02-11T16:49:36.793Z,195.43
2023-02-11T16:52:10.117Z,200.57
2023-02-11T16:54:37.696Z,193.70
2023-02-11T16:57:10.151Z,176.50
2023-02-11T16:59:37.751Z,180.17
2023-02-11T17:02:05.550Z,186.33
2023-02-11T17:04:34.813Z,174.80
2023-02-11T17:07:02.491Z,167.70
2023-02-11T17:09:31.202Z,161.30
2023-02-11T17:11:59.176Z,167.17
2023-02-11T17:14:26.963Z,181.20
2023-02-11T17:16:54.574Z,158.60
2023-02-11T17:19:22.242Z,160.97
2023-02-11T17:21:53.402Z,157.07
2023-02-11T17:24:22.156Z,149.70
2023-02-11T17:26:50.740Z,144.00
2023-02-11T17:29:20.539Z,150.07
2023-02-11T17:31:48.835Z,154.27
2023-02-11T17:34:17.752Z,152.53
2023-02-11T17:36:45.439Z,140.13
2023-02-11T17:39:14.619Z,148.67
2023-02-11T17:41:42.571Z,145.50
2023-02-11T17:44:14.030Z,124.87
2023-02-11T17:46:41.743Z,147.70
2023-02-11T17:49:09.935Z,132.67
2023-02-11T17:51:39.564Z,140.97
2023-02-11T17:54:09.786Z,134.17
2023-02-11T17:56:38.965Z,145.67
2023-02-11T17:59:08.264Z,136.47
2023-02-11T18:01:37.679Z,133.73
2023-02-11T18:04:06.972Z,146.63
2023-02-11T18:06:35.192Z,139.33
2023-02-11T18:09:04.262Z,130.43
2023-02-11T18:11:34.354Z,148.80
2023-02-11T18:14:04.592Z,151.13
2023-02-11T18:16:34.911Z,141.13
2023-02-11T18:19:03.754Z,139.27
2023-02-11T18:21:31.527Z,148.63
2023-02-11T18:24:05.803Z,136.23
2023-02-11T18:26:33.974Z,135.83
2023-02-11T18:29:03.784Z,146.17
2023-02-11T18:31:31.543Z,143.20
2023-02-11T18:33:59.308Z,127.90
2023-02-11T18:36:27.045Z,126.83
2023-02-11T18:38:54.746Z,135.93
2023-02-11T18:41:22.671Z,138.27
2023-02-11T18:43:50.599Z,147.17
2023-02-11T18:46:20.272Z,140.03
2023-02-11T18:48:49.235Z,143.77
2023-02-11T18:51:19.229Z,154.60
2023-02-11T18:53:47.093Z,141.23
2023-02-11T18:56:16.756Z,140.10
2023-02-11T18:58:44.443Z,142.03
2023-02-11T19:01:14.637Z,136.40
2023-02-11T19:03:43.748Z,141.90
2023-02-11T19:06:15.939Z,135.73
2023-02-11T19:08:43.691Z,137.07
2023-02-11T19:11:11.521Z,139.60
2023-02-11T19:13:40.027Z,141.57
2023-02-11T19:16:11.297Z,130.53
2023-02-11T19:18:39.216Z,125.17
2023-02-11T19:21:12.768Z,128.57
2023-02-11T19:23:41.078Z,134.07
2023-02-11T19:26:08.994Z,147.53
2023-02-11T19:28:37.351Z,134.33
2023-02-11T19:31:09.631Z,140.17
2023-02-11T19:33:37.519Z,138.97
2023-02-11T19:36:07.058Z,147.60
2023-02-11T19:38:36.761Z,125.43
2023-02-11T19:41:04.999Z,135.27
2023-02-11T19:43:32.719Z,131.70
2023-02-11T19:46:02.646Z,128.47
2023-02-11T19:48:30.928Z,126.43
2023-02-11T19:50:58.953Z,132.83
2023-02-11T19:53:26.652Z,133.33
2023-02-11T19:55:55.587Z,116.67
2023-02-11T19:58:23.215Z,133.57
2023-02-11T20:00:50.873Z,146.13
2023-02-11T20:03:18.540Z,128.57
2023-02-11T20:05:47.715Z,145.53
2023-02-11T20:08:17.027Z,132.40
2023-02-11T20:10:44.899Z,127.10
2023-02-11T20:13:14.093Z,134.07
2023-02-11T20:15:41.912Z,122.07
2023-02-11T20:18:09.589Z,134.27
2023-02-11T20:20:39.130Z,135.90
2023-02-11T20:23:06.740Z,129.63
2023-02-11T20:25:34.607Z,145.10
2023-02-11T20:28:02.358Z,132.30
2023-02-11T20:30:31.371Z,139.53
2023-02-11T20:32:59.414Z,129.43
2023-02-11T20:35:27.089Z,138.60
2023-02-11T20:37:54.769Z,143.13
2023-02-11T20:40:22.423Z,136.70
2023-02-11T20:42:50.269Z,133.67
2023-02-11T20:45:18.101Z,135.57
2023-02-11T20:47:47.181Z,132.57
2023-02-11T20:50:14.883Z,143.83
2023-02-11T20:52:42.586Z,138.83
2023-02-11T20:55:10.209Z,133.73
2023-02-11T20:57:37.807Z,136.37
2023-02-11T21:00:06.318Z,132.93
2023-02-11T21:02:34.123Z,135.80
2023-02-11T21:05:03.228Z,131.97
2023-02-11T21:07:31.334Z,137.97
2023-02-11T21:09:58.946Z,135.53
2023-02-11T21:12:26.657Z,124.20
2023-02-11T21:14:54.836Z,124.47
2023-02-11T21:17:22.472Z,128.27
2023-02-11T21:19:50.134Z,129.40
2023-02-11T21:22:19.124Z,129.50
2023-02-11T21:24:46.763Z,135.83
2023-02-11T21:27:14.438Z,130.73
2023-02-11T21:29:53.501Z,129.57
2023-02-11T21:32:22.024Z,134.80
2023-02-11T21:34:49.662Z,144.20
2023-02-11T21:37:18.678Z,137.43
2023-02-11T21:39:46.328Z,148.27
2023-02-11T21:42:14.032Z,130.87
2023-02-11T21:44:41.706Z,130.63
2023-02-11T21:47:09.307Z,131.40
2023-02-11T21:49:37.109Z,136.40
2023-02-11T21:52:05.245Z,135.03
2023-02-11T21:54:34.234Z,135.80
2023-02-11T21:57:03.011Z,132.30
2023-02-11T21:59:31.646Z,131.43
2023-02-11T22:01:59.748Z,138.50
2023-02-11T22:04:27.781Z,137.87
2023-02-11T22:06:55.444Z,133.83
2023-02-11T22:09:23.081Z,133.60
2023-02-11T22:11:52.997Z,138.57
2023-02-11T22:14:20.712Z,140.40
2023-02-11T22:16:48.902Z,142.83
2023-02-11T22:19:17.240Z,133.87
2023-02-11T22:21:44.927Z,125.53
2023-02-11T22:24:12.560Z,132.13
2023-02-11T22:26:40.376Z,135.07
2023-02-11T22:29:09.420Z,144.07
2023-02-11T22:31:37.363Z,128.50
2023-02-11T22:34:06.480Z,135.90
2023-02-11T22:36:36.373Z,138.53
2023-02-11T22:39:06.859Z,134.90
2023-02-11T22:41:34.992Z,136.17
2023-02-11T22:44:02.655Z,139.90
2023-02-11T22:46:31.695Z,143.63
2023-02-11T22:48:59.374Z,144.03
2023-02-11T22:51:29.084Z,145.40
2023-02-11T22:53:58.398Z,133.07
2023-02-11T22:56:27.451Z,128.87
2023-02-11T22:58:58.889Z,134.40
2023-02-11T23:01:26.997Z,125.70
2023-02-11T23:03:56.230Z,140.43
2023-02-11T23:06:23.967Z,141.00
2023-02-11T23:08:51.613Z,130.13
2023-02-11T23:11:21.701Z,136.10
2023-02-11T23:13:50.951Z,127.33
2023-02-11T23:16:21.158Z,133.87
2023-02-11T23:18:50.003Z,138.37
2023-02-11T23:21:22.611Z,133.10
2023-02-11T23:23:55.883Z,149.53
2023-02-11T23:26:23.723Z,141.20
2023-02-11T23:28:51.669Z,142.07
2023-02-11T23:31:23.053Z,136.97
2023-02-11T23:33:51.409Z,140.93
2023-02-11T23:36:21.799Z,145.37
2023-02-11T23:38:50.048Z,146.77
2023-02-11T23:41:17.969Z,135.13
2023-02-11T23:43:50.424Z,145.40
2023-02-11T23:46:18.212Z,136.30
2023-02-11T23:48:46.044Z,144.63
2023-02-11T23:51:13.685Z,140.20
2023-02-11T23:53:42.736Z,144.17
2023-02-11T23:56:14.069Z,137.00
2023-02-11T23:58:41.779Z,146.73
